Magnolia, Texas
Current Conditions -  °F | °C
As of 9:53 AM on Friday 24 Oct 2014 (Local Time) from KDWH Reporting Station
Clear Clear  
Wind Chill: 64°   Ceiling: Unl
Heat Index: 64°   Visibility: 10mi
Dew Point: 53°   Wind: 3mph
Humidity: 67%   Direction: 50°NE
Pressure: 30.19"   Gusts: NA
Location:  30.21°N, 95.75°W
Report Text: KDWH 241453Z 05003KT 10SM CLR 18/12 A3019 RMK AO2 SLP221 T01780117 51017
Loading
Personal Weather Stations






























Interactive Weather Map
Tropical Storm Tracking
New forecast layout! Learn more

10-Day Weather Forecast

Advertisements
Track Severe Weather on mobile